Time;durP1;ratioP1;P1;durP2;ratioP2;P2;SDS_P1;SDS_P2;PMS_P1;PMS_P2;Temp;Humidity;BMP_temperature;BMP_pressure;BME280_temperature;BME280_humidity;BME280_pressure;Samples;Min_cycle;Max_cycle;Signal;HPM_P1;HPM_P2
2023/04/07 00:01:22;;;;;;;26.70;19.20;;;8.00;99.90;;;;;;5011811;28;20551;-50
2023/04/07 00:03:47;;;;;;;26.38;19.02;;;8.10;99.90;;;;;;5011918;28;20030;-51
2023/04/07 00:06:13;;;;;;;23.42;17.83;;;8.00;99.90;;;;;;4994289;28;20068;-47
2023/04/07 00:08:38;;;;;;;23.75;17.20;;;8.00;99.90;;;;;;4994056;28;20026;-49
2023/04/07 00:11:04;;;;;;;25.33;17.10;;;8.10;99.90;;;;;;5012086;28;20240;-50
2023/04/07 00:13:30;;;;;;;23.35;16.70;;;8.10;99.90;;;;;;5011709;28;20371;-51
2023/04/07 00:15:55;;;;;;;21.25;16.13;;;8.00;99.90;;;;;;5011715;28;20037;-50
2023/04/07 00:18:21;;;;;;;26.55;18.50;;;8.00;99.90;;;;;;5011605;28;20041;-47
2023/04/07 00:20:46;;;;;;;23.92;16.85;;;8.00;99.90;;;;;;5011696;28;20108;-47
2023/04/07 00:23:12;;;;;;;26.58;18.98;;;8.00;99.90;;;;;;5011468;28;20030;-47
2023/04/07 00:25:37;;;;;;;25.08;17.52;;;8.00;99.90;;;;;;5011643;28;20071;-50
2023/04/07 00:28:03;;;;;;;22.45;16.83;;;8.00;99.90;;;;;;5011612;28;20068;-47
2023/04/07 00:30:28;;;;;;;22.70;17.30;;;8.00;99.90;;;;;;5011651;28;20022;-47
2023/04/07 00:32:54;;;;;;;23.83;17.42;;;7.90;99.90;;;;;;5011526;28;20034;-48
2023/04/07 00:35:19;;;;;;;22.98;16.02;;;7.90;99.90;;;;;;5011729;28;20033;-48
2023/04/07 00:37:45;;;;;;;23.58;16.73;;;8.00;99.90;;;;;;5011469;28;20037;-51
2023/04/07 00:40:11;;;;;;;21.30;16.83;;;8.10;99.90;;;;;;4994039;28;20032;-49
2023/04/07 00:42:36;;;;;;;22.73;15.43;;;8.00;99.90;;;;;;5011371;28;20030;-49
2023/04/07 00:45:02;;;;;;;21.73;14.82;;;8.00;99.90;;;;;;5011653;28;20069;-47
2023/04/07 00:47:27;;;;;;;19.42;14.38;;;8.00;99.90;;;;;;5011531;28;20022;-47
2023/04/07 00:49:53;;;;;;;16.90;13.90;;;8.00;99.90;;;;;;4993856;28;20021;-48
2023/04/07 00:52:26;;;;;;;17.65;14.00;;;8.00;99.90;;;;;;5011387;28;20543;-47
2023/04/07 00:54:53;;;;;;;20.05;14.70;;;8.10;99.90;;;;;;5014966;28;20033;-47
2023/04/07 00:57:18;;;;;;;20.85;13.15;;;8.10;99.90;;;;;;5015247;28;20073;-46
2023/04/07 00:59:44;;;;;;;16.80;12.88;;;8.10;99.90;;;;;;5015497;28;20030;-48
2023/04/07 01:02:15;;;;;;;16.48;12.30;;;8.10;99.90;;;;;;5015084;28;20030;-51
2023/04/07 01:04:47;;;;;;;22.05;12.27;;;8.00;99.90;;;;;;4997368;28;20021;-48
2023/04/07 01:07:26;;;;;;;16.45;12.05;;;8.00;99.90;;;;;;5015202;28;20219;-50
2023/04/07 01:10:00;;;;;;;14.90;12.35;;;8.00;99.90;;;;;;5014960;28;20037;-48
2023/04/07 01:12:44;;;;;;;18.80;11.98;;;8.00;99.90;;;;;;5014763;28;20512;-53
2023/04/07 01:15:11;;;;;;;17.40;11.93;;;8.10;99.90;;;;;;5015421;28;20444;-47
2023/04/07 01:17:44;;;;;;;14.07;11.00;;;8.10;99.90;;;;;;5014963;28;20080;-47
2023/04/07 01:20:15;;;;;;;17.63;12.52;;;8.10;99.90;;;;;;5014852;28;20160;-50
2023/04/07 01:22:53;;;;;;;17.48;13.52;;;8.20;99.90;;;;;;4997200;28;20037;-50
2023/04/07 01:25:56;;;;;;;14.75;12.23;;;8.20;99.90;;;;;;5014932;28;20029;-47
2023/04/07 01:28:42;;;;;;;17.63;12.43;;;8.20;99.90;;;;;;5014418;28;20018;-51
2023/04/07 01:31:11;;;;;;;18.52;11.65;;;8.20;99.90;;;;;;5014757;28;20041;-50
2023/04/07 01:33:37;;;;;;;14.88;10.57;;;8.20;99.90;;;;;;5014710;28;20397;-52
2023/04/07 01:36:05;;;;;;;19.27;12.73;;;8.20;99.90;;;;;;5014867;28;20022;-47
2023/04/07 01:38:32;;;;;;;15.65;12.15;;;8.30;99.90;;;;;;5014565;28;20057;-47
2023/04/07 01:40:59;;;;;;;15.43;12.68;;;8.30;99.90;;;;;;5014128;28;20506;-48
2023/04/07 01:43:27;;;;;;;17.65;12.30;;;8.30;99.90;;;;;;4996554;28;20560;-50
2023/04/07 01:45:54;;;;;;;16.25;12.10;;;8.40;99.90;;;;;;5014397;28;20018;-49
2023/04/07 01:48:20;;;;;;;18.85;13.85;;;8.30;99.90;;;;;;5014087;28;20018;-49
2023/04/07 01:50:46;;;;;;;18.42;12.70;;;8.30;99.90;;;;;;5014294;28;20388;-47
2023/04/07 01:53:14;;;;;;;16.13;12.30;;;8.30;99.90;;;;;;4996849;28;20029;-48
2023/04/07 01:55:40;;;;;;;15.10;11.68;;;8.40;99.90;;;;;;5014098;28;20524;-51
2023/04/07 01:58:06;;;;;;;18.67;11.98;;;8.30;99.90;;;;;;4996330;28;20030;-49
2023/04/07 02:00:33;;;;;;;15.60;12.73;;;8.00;99.90;;;;;;5014074;28;20509;-53
2023/04/07 02:03:11;;;;;;;20.13;12.32;;;9.00;99.90;;;;;;5013885;28;20033;-48
2023/04/07 02:05:39;;;;;;;18.60;10.82;;;8.60;99.90;;;;;;5013661;28;20371;-52
2023/04/07 02:08:08;;;;;;;16.55;11.88;;;8.30;99.90;;;;;;5013727;28;20061;-47
2023/04/07 02:10:36;;;;;;;14.70;11.52;;;8.20;99.90;;;;;;4996237;28;20549;-50
2023/04/07 02:13:07;;;;;;;17.08;12.57;;;8.20;99.90;;;;;;4996049;28;20104;-48
2023/04/07 02:15:35;;;;;;;14.38;11.90;;;8.20;99.90;;;;;;5013691;28;20509;-50
2023/04/07 02:18:02;;;;;;;13.93;11.38;;;8.20;99.90;;;;;;5013373;28;20091;-48
2023/04/07 02:20:29;;;;;;;13.80;11.32;;;8.20;99.90;;;;;;5013961;28;20038;-50
2023/04/07 02:22:55;;;;;;;14.25;11.50;;;8.10;99.90;;;;;;5013382;28;20087;-53
2023/04/07 02:25:25;;;;;;;16.38;12.27;;;8.20;99.90;;;;;;5013759;28;20030;-48
2023/04/07 02:27:51;;;;;;;18.38;13.02;;;8.20;99.90;;;;;;4996102;28;20018;-56
2023/04/07 02:30:17;;;;;;;18.45;12.25;;;8.20;99.90;;;;;;5013448;28;20507;-49
2023/04/07 02:32:43;;;;;;;13.38;11.52;;;8.20;99.90;;;;;;5013271;28;20117;-52
2023/04/07 02:35:09;;;;;;;14.88;11.23;;;8.20;99.90;;;;;;5013382;28;20444;-53
2023/04/07 02:37:35;;;;;;;16.02;12.02;;;8.10;99.90;;;;;;5013140;28;20545;-48
2023/04/07 02:40:01;;;;;;;16.55;11.40;;;8.10;99.90;;;;;;5013431;28;20112;-51
2023/04/07 02:42:27;;;;;;;16.02;12.48;;;8.10;99.90;;;;;;4995160;28;20022;-48
2023/04/07 02:44:52;;;;;;;22.33;12.40;;;8.10;99.90;;;;;;5013146;28;20026;-51
2023/04/07 02:47:18;;;;;;;17.42;11.90;;;8.10;99.90;;;;;;5013024;28;20053;-47
2023/04/07 02:49:43;;;;;;;18.98;12.50;;;8.20;99.90;;;;;;5012719;28;20633;-47
2023/04/07 02:52:09;;;;;;;16.30;11.98;;;8.10;99.90;;;;;;5012967;28;20490;-51
2023/04/07 02:54:35;;;;;;;15.13;11.93;;;8.20;99.90;;;;;;5012946;28;20028;-51
2023/04/07 02:57:01;;;;;;;17.48;12.05;;;8.30;99.90;;;;;;5013185;28;20096;-50
2023/04/07 02:59:26;;;;;;;17.92;12.93;;;8.20;99.90;;;;;;5012734;28;20072;-46
2023/04/07 03:01:51;;;;;;;15.70;12.05;;;8.40;99.90;;;;;;5012652;28;20049;-51
2023/04/07 03:04:17;;;;;;;14.48;12.07;;;8.30;99.90;;;;;;5012772;28;20431;-52
2023/04/07 03:06:42;;;;;;;16.02;12.30;;;8.30;99.90;;;;;;5012787;28;20029;-47
2023/04/07 03:09:08;;;;;;;19.10;12.43;;;8.40;99.90;;;;;;5012594;28;20088;-52
2023/04/07 03:11:33;;;;;;;17.95;12.38;;;8.40;99.90;;;;;;5012765;28;20022;-54
2023/04/07 03:13:59;;;;;;;15.63;12.10;;;8.50;99.90;;;;;;5012620;28;20037;-49
2023/04/07 03:16:25;;;;;;;15.18;11.55;;;8.50;99.90;;;;;;5011847;28;20508;-48
2023/04/07 03:18:50;;;;;;;19.00;12.30;;;8.50;99.90;;;;;;5012317;28;20029;-49
2023/04/07 03:21:16;;;;;;;18.83;12.27;;;8.40;99.90;;;;;;5011980;28;20037;-52
2023/04/07 03:23:41;;;;;;;17.40;12.38;;;8.70;99.90;;;;;;5012301;28;20041;-46
2023/04/07 03:26:07;;;;;;;15.55;12.52;;;8.40;99.90;;;;;;4994770;28;20402;-50
2023/04/07 03:28:32;;;;;;;15.85;12.20;;;8.40;99.90;;;;;;5012253;28;20157;-51
2023/04/07 03:30:58;;;;;;;14.63;11.63;;;8.50;99.90;;;;;;5012117;28;20064;-47
2023/04/07 03:33:23;;;;;;;18.33;12.70;;;8.50;99.90;;;;;;5012167;28;20025;-50
2023/04/07 03:35:49;;;;;;;16.13;12.27;;;8.50;99.90;;;;;;5012243;28;20564;-52
2023/04/07 03:38:14;;;;;;;17.85;12.95;;;8.40;99.90;;;;;;5012150;28;20026;-48
2023/04/07 03:40:40;;;;;;;16.38;12.73;;;8.40;99.90;;;;;;5011991;28;20505;-52
2023/04/07 03:43:11;;;;;;;17.08;12.43;;;8.30;99.90;;;;;;5011937;28;20084;-49
2023/04/07 03:45:37;;;;;;;14.05;12.43;;;8.40;99.90;;;;;;5012224;28;20072;-51
2023/04/07 03:48:02;;;;;;;17.77;12.35;;;8.30;99.90;;;;;;5011810;28;20475;-51
2023/04/07 03:50:28;;;;;;;15.05;11.40;;;8.40;99.90;;;;;;5012233;28;20389;-50
2023/04/07 03:52:53;;;;;;;15.50;12.93;;;8.40;99.90;;;;;;5011214;28;20038;-49
2023/04/07 03:55:19;;;;;;;15.75;12.25;;;8.40;99.90;;;;;;5011902;28;20393;-47
2023/04/07 03:57:44;;;;;;;16.20;11.75;;;8.30;99.90;;;;;;5011881;28;20030;-46
2023/04/07 04:00:11;;;;;;;20.10;13.73;;;8.30;99.90;;;;;;5011822;28;20022;-50
2023/04/07 04:02:37;;;;;;;13.88;11.90;;;8.40;99.90;;;;;;4994055;28;20096;-49
2023/04/07 04:05:02;;;;;;;19.15;11.93;;;8.50;99.90;;;;;;5011822;28;20022;-49
2023/04/07 04:07:28;;;;;;;13.93;11.50;;;8.40;99.90;;;;;;5011621;28;20026;-52
2023/04/07 04:09:53;;;;;;;17.60;12.50;;;8.40;99.90;;;;;;5012176;28;20026;-44
2023/04/07 04:12:19;;;;;;;16.23;11.80;;;8.30;99.90;;;;;;5011787;28;20101;-47
2023/04/07 04:14:44;;;;;;;15.57;11.85;;;8.40;99.90;;;;;;5011749;28;20080;-49
2023/04/07 04:17:10;;;;;;;16.92;12.77;;;8.30;99.90;;;;;;5011892;28;20065;-47
2023/04/07 04:19:35;;;;;;;16.85;13.15;;;8.40;99.90;;;;;;5012040;28;20393;-50
2023/04/07 04:22:01;;;;;;;13.77;11.30;;;8.30;99.90;;;;;;4993868;28;20020;-52
2023/04/07 04:24:26;;;;;;;16.73;11.23;;;8.20;99.90;;;;;;5011864;28;20105;-51
2023/04/07 04:26:52;;;;;;;15.45;12.68;;;8.30;99.90;;;;;;5011986;28;20061;-49
2023/04/07 04:29:17;;;;;;;14.18;12.00;;;8.30;99.90;;;;;;5015391;28;20042;-55
2023/04/07 04:31:43;;;;;;;14.05;12.13;;;8.30;99.90;;;;;;4998242;28;20108;-49
2023/04/07 04:34:08;;;;;;;16.67;11.55;;;8.30;99.90;;;;;;5015451;28;20041;-48
2023/04/07 04:36:34;;;;;;;15.15;12.05;;;8.30;99.90;;;;;;5015884;28;20100;-52
2023/04/07 04:39:00;;;;;;;15.23;11.82;;;8.40;99.90;;;;;;5015500;28;20080;-46
2023/04/07 04:41:25;;;;;;;16.90;11.63;;;8.20;99.90;;;;;;5015168;28;20397;-47
2023/04/07 04:43:51;;;;;;;15.52;12.60;;;8.60;99.90;;;;;;5015216;28;20561;-45
2023/04/07 04:46:16;;;;;;;16.45;12.70;;;8.30;99.90;;;;;;5015371;28;20032;-47
2023/04/07 04:48:42;;;;;;;14.63;11.40;;;8.40;99.90;;;;;;5015161;28;20022;-51
2023/04/07 04:51:07;;;;;;;14.98;12.25;;;8.50;99.90;;;;;;5015434;28;20026;-49
2023/04/07 04:53:33;;;;;;;14.20;12.18;;;8.30;99.90;;;;;;5015201;28;20025;-46
2023/04/07 04:55:58;;;;;;;16.63;11.93;;;8.40;99.90;;;;;;5015288;28;20033;-48
2023/04/07 04:58:24;;;;;;;14.70;11.82;;;8.40;99.90;;;;;;5014723;28;20026;-49
2023/04/07 05:00:56;;;;;;;13.65;11.63;;;8.40;99.90;;;;;;5015215;28;20034;-45
2023/04/07 05:03:22;;;;;;;16.45;12.07;;;8.50;99.90;;;;;;5015004;28;20160;-50
2023/04/07 05:05:48;;;;;;;14.30;12.30;;;8.50;99.90;;;;;;5015123;28;20144;-46
2023/04/07 05:08:13;;;;;;;14.27;12.48;;;8.60;99.90;;;;;;5036248;22;20495;-39
2023/04/07 05:10:39;;;;;;;16.42;12.80;;;8.60;99.90;;;;;;5014876;28;20041;-40
2023/04/07 05:13:05;;;;;;;15.13;12.57;;;8.50;99.90;;;;;;5014610;28;20026;-43
2023/04/07 05:15:30;;;;;;;18.55;13.35;;;8.40;99.90;;;;;;5014783;28;20037;-42
2023/04/07 05:17:56;;;;;;;17.13;13.05;;;8.40;99.90;;;;;;5014616;28;20478;-40
2023/04/07 05:20:22;;;;;;;15.98;13.93;;;8.40;99.90;;;;;;5014727;28;20025;-41
2023/04/07 05:22:47;;;;;;;17.23;13.10;;;8.40;99.90;;;;;;5014391;28;20486;-43
2023/04/07 05:25:13;;;;;;;17.70;13.15;;;8.30;99.90;;;;;;4997048;28;20022;-42
2023/04/07 05:27:38;;;;;;;16.33;12.77;;;8.30;99.90;;;;;;5014402;28;20018;-42
2023/04/07 05:30:04;;;;;;;16.17;12.50;;;8.30;99.90;;;;;;5014661;28;20489;-41
2023/04/07 05:32:30;;;;;;;18.20;13.02;;;8.30;99.90;;;;;;5014007;28;20068;-40
2023/04/07 05:34:56;;;;;;;17.27;13.00;;;8.30;99.90;;;;;;5014595;28;20026;-41
2023/04/07 05:37:21;;;;;;;18.98;12.80;;;8.40;99.90;;;;;;5014484;28;20026;-45
2023/04/07 05:39:47;;;;;;;17.52;14.02;;;8.40;99.90;;;;;;4995918;28;20022;-40
2023/04/07 05:42:12;;;;;;;17.50;13.73;;;8.30;99.90;;;;;;5013829;28;20022;-40
2023/04/07 05:44:38;;;;;;;18.67;14.32;;;8.30;99.90;;;;;;5014125;28;20022;-43
2023/04/07 05:47:07;;;;;;;19.75;14.00;;;8.30;99.90;;;;;;5014646;28;20444;-42
2023/04/07 05:49:33;;;;;;;20.05;14.63;;;8.40;99.90;;;;;;5014085;28;20018;-41
2023/04/07 05:51:59;;;;;;;18.77;14.43;;;8.30;99.90;;;;;;4997468;28;20044;-41
2023/04/07 05:54:25;;;;;;;19.90;14.70;;;8.20;99.90;;;;;;5015041;28;20033;-42
2023/04/07 05:56:50;;;;;;;18.35;14.90;;;8.20;99.90;;;;;;5014919;28;20445;-41
2023/04/07 05:59:16;;;;;;;20.17;14.60;;;8.30;99.90;;;;;;5014621;28;20097;-42
2023/04/07 06:01:41;;;;;;;22.63;14.10;;;8.30;99.90;;;;;;5014901;28;20084;-41
2023/04/07 06:04:07;;;;;;;18.63;14.43;;;8.20;99.90;;;;;;5014226;28;20026;-44
2023/04/07 06:06:32;;;;;;;18.60;13.50;;;8.30;99.90;;;;;;4996600;28;20397;-44
2023/04/07 06:08:58;;;;;;;20.27;14.05;;;8.20;99.90;;;;;;5013731;28;20030;-41
2023/04/07 06:11:25;;;;;;;22.90;14.18;;;8.20;99.90;;;;;;5013964;28;20034;-42
2023/04/07 06:13:50;;;;;;;18.80;14.23;;;8.20;99.90;;;;;;5013811;28;20054;-44
2023/04/07 06:16:16;;;;;;;19.20;13.68;;;8.30;99.90;;;;;;5013945;28;20056;-43
2023/04/07 06:18:41;;;;;;;17.70;13.00;;;8.30;99.90;;;;;;5013966;28;20438;-43
2023/04/07 06:21:07;;;;;;;17.17;13.07;;;8.20;99.90;;;;;;5013721;28;20018;-45
2023/04/07 06:23:32;;;;;;;22.10;15.35;;;8.20;99.90;;;;;;5014102;28;20034;-44
2023/04/07 06:25:58;;;;;;;19.42;14.48;;;8.20;99.90;;;;;;5013656;28;20021;-45
2023/04/07 06:28:23;;;;;;;22.15;14.40;;;8.30;99.90;;;;;;5013444;28;20394;-42
2023/04/07 06:30:49;;;;;;;16.95;14.07;;;8.30;99.90;;;;;;5013470;28;20545;-42
2023/04/07 06:33:15;;;;;;;18.02;13.70;;;8.40;99.90;;;;;;5013307;28;20620;-41
2023/04/07 06:35:40;;;;;;;17.42;13.88;;;8.40;99.90;;;;;;5013385;28;20025;-42
2023/04/07 06:38:06;;;;;;;20.38;13.88;;;8.50;99.90;;;;;;5012922;28;20109;-44
2023/04/07 06:40:32;;;;;;;19.27;13.98;;;8.50;99.90;;;;;;5013080;28;20026;-45
2023/04/07 06:42:57;;;;;;;15.48;12.93;;;8.60;99.90;;;;;;5013078;28;20065;-41
2023/04/07 06:45:23;;;;;;;17.90;13.80;;;8.60;99.90;;;;;;5013293;28;20369;-43
2023/04/07 06:47:49;;;;;;;15.93;14.23;;;8.60;99.90;;;;;;5013185;28;20098;-42
2023/04/07 06:50:16;;;;;;;17.38;13.20;;;8.60;99.90;;;;;;5012481;28;20460;-41
2023/04/07 06:52:42;;;;;;;18.65;13.75;;;8.70;99.90;;;;;;5012422;28;20033;-44
2023/04/07 06:55:08;;;;;;;15.88;12.88;;;8.60;99.90;;;;;;5012928;28;20132;-43
2023/04/07 06:57:33;;;;;;;16.85;13.40;;;8.70;99.90;;;;;;5012909;28;20037;-40
2023/04/07 06:59:59;;;;;;;15.95;12.35;;;8.70;99.90;;;;;;4995219;28;20485;-45
2023/04/07 07:02:24;;;;;;;17.13;13.77;;;8.70;99.90;;;;;;5012717;28;20033;-43
2023/04/07 07:04:50;;;;;;;17.88;14.15;;;8.80;99.90;;;;;;5012862;28;20033;-41
2023/04/07 07:07:15;;;;;;;18.50;14.77;;;8.90;99.90;;;;;;5012748;28;20022;-40
2023/04/07 07:09:41;;;;;;;17.23;14.43;;;8.90;99.90;;;;;;5012212;28;20034;-45
2023/04/07 07:12:06;;;;;;;20.42;14.55;;;9.00;99.90;;;;;;5012468;28;20033;-43
2023/04/07 07:14:32;;;;;;;20.63;14.32;;;9.10;99.90;;;;;;5012774;28;20111;-42
2023/04/07 07:16:57;;;;;;;21.02;15.30;;;9.10;99.90;;;;;;5012703;28;20030;-44
2023/04/07 07:19:23;;;;;;;18.05;14.27;;;9.10;99.90;;;;;;5012504;28;20032;-44
2023/04/07 07:21:48;;;;;;;18.75;14.50;;;9.10;99.90;;;;;;5012715;28;20064;-42
2023/04/07 07:24:14;;;;;;;17.02;13.88;;;9.10;99.90;;;;;;5012587;28;20032;-43
2023/04/07 07:26:40;;;;;;;20.20;14.48;;;9.20;99.90;;;;;;5012915;28;20097;-41
2023/04/07 07:29:06;;;;;;;19.27;13.75;;;9.10;99.90;;;;;;5012378;28;20489;-41
2023/04/07 07:31:31;;;;;;;19.30;14.15;;;9.00;99.90;;;;;;5012573;28;20025;-42
2023/04/07 07:33:57;;;;;;;18.70;13.43;;;9.00;99.90;;;;;;5012267;28;20033;-43
2023/04/07 07:36:22;;;;;;;18.48;14.57;;;9.00;99.90;;;;;;5012501;28;20398;-41
2023/04/07 07:38:50;;;;;;;21.08;14.35;;;8.90;99.90;;;;;;5012335;28;20053;-43
2023/04/07 07:41:15;;;;;;;16.58;13.52;;;9.00;99.90;;;;;;5011900;28;20026;-41
2023/04/07 07:43:41;;;;;;;16.90;14.43;;;9.00;99.90;;;;;;5012141;28;20037;-42
2023/04/07 07:46:07;;;;;;;17.92;13.27;;;9.00;99.90;;;;;;5012223;28;20033;-41
2023/04/07 07:48:33;;;;;;;20.08;12.98;;;9.00;99.90;;;;;;5012007;28;20037;-39
2023/04/07 07:50:58;;;;;;;17.55;13.18;;;9.00;99.90;;;;;;5012123;28;20109;-43
2023/04/07 07:53:24;;;;;;;15.90;12.60;;;9.10;99.90;;;;;;5011988;28;20091;-40
2023/04/07 07:55:49;;;;;;;14.82;12.52;;;9.10;99.90;;;;;;5011967;28;20032;-42
2023/04/07 07:58:15;;;;;;;21.40;13.90;;;9.30;99.90;;;;;;5012442;28;20465;-41
2023/04/07 08:00:41;;;;;;;18.90;13.95;;;9.30;99.90;;;;;;5012273;28;20030;-46
2023/04/07 08:03:06;;;;;;;16.63;12.60;;;9.30;99.90;;;;;;5011466;28;20109;-43
2023/04/07 08:05:32;;;;;;;16.27;12.90;;;9.30;99.90;;;;;;5012666;28;20029;-42
2023/04/07 08:07:57;;;;;;;19.35;13.43;;;9.40;99.90;;;;;;5012657;28;20032;-43
2023/04/07 08:10:24;;;;;;;18.75;12.98;;;9.40;99.90;;;;;;5011878;28;20087;-43
2023/04/07 08:12:50;;;;;;;15.52;13.02;;;9.50;99.90;;;;;;5011607;28;20026;-44
2023/04/07 08:15:15;;;;;;;16.45;13.30;;;9.60;99.90;;;;;;5011755;28;20045;-43
2023/04/07 08:17:41;;;;;;;16.02;13.43;;;9.70;99.90;;;;;;5011652;28;20029;-44
2023/04/07 08:20:07;;;;;;;18.65;13.10;;;9.70;99.90;;;;;;5011637;28;20104;-40
2023/04/07 08:22:33;;;;;;;18.48;12.98;;;9.70;99.90;;;;;;5011431;28;20123;-41
2023/04/07 08:24:58;;;;;;;14.75;12.90;;;9.80;99.90;;;;;;5011892;28;20050;-43
2023/04/07 08:27:24;;;;;;;18.73;13.43;;;9.90;99.90;;;;;;5011638;28;20033;-43
2023/04/07 08:30:04;;;;;;;18.75;13.75;;;9.90;99.90;;;;;;5011465;28;20030;-44
2023/04/07 08:32:35;;;;;;;17.35;13.10;;;10.00;99.90;;;;;;4993875;28;20506;-39
2023/04/07 08:35:01;;;;;;;14.50;12.35;;;10.00;99.90;;;;;;5011622;28;20075;-40
2023/04/07 08:37:26;;;;;;;17.55;13.02;;;10.10;99.90;;;;;;5011542;28;20486;-40
2023/04/07 08:39:52;;;;;;;15.45;12.13;;;10.30;99.90;;;;;;5006792;28;20373;-45
2023/04/07 08:42:18;;;;;;;15.20;11.65;;;10.60;99.90;;;;;;5010984;28;20038;-43
2023/04/07 08:44:46;;;;;;;17.13;12.27;;;10.90;99.90;;;;;;5011351;28;20026;-44
2023/04/07 08:47:15;;;;;;;14.80;11.27;;;11.10;99.90;;;;;;4993774;28;20545;-44
2023/04/07 08:49:43;;;;;;;16.08;11.93;;;11.30;99.90;;;;;;4992651;28;20026;-49
2023/04/07 08:52:12;;;;;;;18.27;12.93;;;11.40;99.90;;;;;;5011106;28;20036;-45
2023/04/07 08:54:37;;;;;;;14.48;11.25;;;11.60;99.90;;;;;;5011151;28;20038;-41
2023/04/07 08:57:04;;;;;;;17.20;10.77;;;11.50;99.90;;;;;;5011313;28;20130;-44
2023/04/07 08:59:32;;;;;;;16.30;11.75;;;11.30;99.90;;;;;;5011205;28;20025;-46
2023/04/07 09:01:58;;;;;;;15.00;11.63;;;11.30;99.90;;;;;;5011281;28;20022;-43
2023/04/07 09:04:24;;;;;;;12.77;11.05;;;11.20;99.90;;;;;;4993175;28;20087;-41
2023/04/07 09:06:50;;;;;;;14.07;11.57;;;11.20;99.90;;;;;;5011322;28;20026;-43
2023/04/07 09:09:15;;;;;;;20.23;12.13;;;11.20;99.90;;;;;;5010936;28;20570;-43
2023/04/07 09:11:40;;;;;;;14.98;10.70;;;11.30;99.90;;;;;;5011222;28;20045;-43
2023/04/07 09:14:06;;;;;;;16.63;10.85;;;11.40;99.90;;;;;;5011753;28;20037;-42
2023/04/07 09:16:32;;;;;;;14.15;11.75;;;11.50;99.90;;;;;;4997436;28;20041;-43
2023/04/07 09:18:58;;;;;;;15.43;11.18;;;11.50;99.90;;;;;;5014635;28;20030;-41
2023/04/07 09:21:24;;;;;;;16.02;12.30;;;11.50;99.90;;;;;;5015224;28;20030;-45
2023/04/07 09:23:49;;;;;;;19.67;12.15;;;11.50;99.90;;;;;;4991255;28;20068;-46
2023/04/07 09:26:21;;;;;;;13.50;11.40;;;11.50;99.90;;;;;;5014670;28;20026;-42
2023/04/07 09:29:07;;;;;;;14.00;11.18;;;11.50;99.90;;;;;;5014709;28;20482;-42
2023/04/07 09:31:47;;;;;;;14.05;11.02;;;11.30;99.90;;;;;;5014656;28;20092;-42
2023/04/07 09:34:30;;;;;;;15.35;11.63;;;11.20;99.90;;;;;;5015067;28;20033;-40
2023/04/07 09:36:56;;;;;;;15.27;11.68;;;11.10;99.90;;;;;;5014703;28;20041;-44
2023/04/07 09:39:22;;;;;;;12.52;11.02;;;11.10;99.90;;;;;;5014689;28;20030;-42
2023/04/07 09:41:48;;;;;;;13.82;11.48;;;11.10;99.90;;;;;;5014584;28;20076;-39
2023/04/07 09:44:14;;;;;;;14.10;11.98;;;11.20;99.90;;;;;;5016106;28;20060;-42
2023/04/07 09:46:49;;;;;;;21.40;14.60;;;11.10;99.90;;;;;;5019451;28;20044;-43
2023/04/07 09:49:15;;;;;;;15.82;12.40;;;11.10;99.90;;;;;;5021449;28;20030;-43
2023/04/07 09:52:06;;;;;;;15.07;12.07;;;11.10;99.90;;;;;;5014634;28;20445;-47
2023/04/07 09:54:40;;;;;;;14.82;12.73;;;11.10;99.90;;;;;;4997790;28;20030;-43
2023/04/07 09:57:10;;;;;;;14.73;12.07;;;11.10;99.90;;;;;;5014650;28;20060;-45
2023/04/07 09:59:38;;;;;;;15.38;12.63;;;11.10;99.90;;;;;;5005001;28;20084;-45
2023/04/07 10:02:05;;;;;;;15.88;11.00;;;11.10;99.90;;;;;;5013955;28;20037;-42
2023/04/07 10:04:31;;;;;;;17.55;12.93;;;11.10;99.90;;;;;;5014005;28;20490;-47
2023/04/07 10:06:57;;;;;;;16.25;13.15;;;11.20;99.90;;;;;;5014125;28;20053;-48
2023/04/07 10:09:26;;;;;;;13.43;12.13;;;11.10;99.90;;;;;;5012920;28;20080;-45
2023/04/07 10:11:53;;;;;;;15.18;13.13;;;11.00;99.90;;;;;;5002905;28;20047;-47
2023/04/07 10:14:20;;;;;;;44.97;32.35;;;11.00;99.90;;;;;;5012406;28;20087;-41
2023/04/07 10:16:47;;;;;;;56.72;38.95;;;11.10;99.90;;;;;;5013532;28;20486;-44
2023/04/07 10:19:13;;;;;;;36.40;23.80;;;11.10;99.90;;;;;;5004693;28;20084;-44
2023/04/07 10:21:43;;;;;;;14.07;12.43;;;11.20;99.90;;;;;;4994420;28;20030;-45
2023/04/07 10:24:14;;;;;;;15.13;13.32;;;11.20;99.90;;;;;;4998175;28;20079;-39
2023/04/07 10:26:41;;;;;;;14.00;11.75;;;11.20;99.90;;;;;;5014804;28;20097;-46
2023/04/07 10:29:10;;;;;;;15.23;10.77;;;11.30;99.90;;;;;;5013393;28;20473;-38
2023/04/07 10:31:36;;;;;;;13.18;11.77;;;11.30;99.90;;;;;;5004304;28;20061;-41
2023/04/07 10:34:02;;;;;;;15.05;12.95;;;11.40;99.90;;;;;;5014277;28;20068;-45
2023/04/07 10:36:28;;;;;;;11.85;10.65;;;11.40;99.90;;;;;;5026050;28;20123;-43
2023/04/07 10:39:05;;;;;;;14.70;11.82;;;11.50;99.90;;;;;;5013121;28;20390;-41
2023/04/07 10:41:35;;;;;;;11.82;10.65;;;11.60;99.90;;;;;;5018157;28;20033;-45
2023/04/07 10:44:02;;;;;;;10.80;9.60;;;11.70;99.90;;;;;;5016340;28;20030;-41
2023/04/07 10:46:59;;;;;;;11.93;10.68;;;11.70;99.90;;;;;;5015922;28;20072;-41
2023/04/07 10:49:25;;;;;;;21.92;11.50;;;11.80;99.90;;;;;;5016352;28;20053;-43
2023/04/07 10:52:23;;;;;;;14.23;11.38;;;11.90;99.90;;;;;;5013027;28;20030;-42
2023/04/07 10:55:26;;;;;;;12.93;11.27;;;12.00;99.90;;;;;;5015418;28;20070;-43
2023/04/07 10:58:22;;;;;;;13.98;11.52;;;12.00;99.90;;;;;;5023421;28;20081;-41
2023/04/07 11:01:03;;;;;;;13.75;11.18;;;11.90;99.90;;;;;;4994024;28;20022;-47
2023/04/07 11:03:30;;;;;;;12.55;9.50;;;11.80;99.90;;;;;;5029326;28;20021;-43
2023/04/07 11:06:10;;;;;;;12.27;10.10;;;11.80;99.90;;;;;;5032321;28;20017;-44
2023/04/07 11:08:42;;;;;;;10.95;9.43;;;11.90;99.90;;;;;;5032831;28;20053;-45
2023/04/07 11:11:12;;;;;;;11.05;9.77;;;11.90;99.90;;;;;;5032752;28;20053;-42
2023/04/07 11:13:41;;;;;;;11.90;10.60;;;12.00;99.90;;;;;;5032195;28;20410;-42
2023/04/07 11:16:07;;;;;;;12.52;11.05;;;11.90;99.90;;;;;;5012892;28;20053;-43
2023/04/07 11:18:35;;;;;;;16.48;11.20;;;11.80;99.90;;;;;;5012254;28;20050;-44
2023/04/07 11:21:01;;;;;;;13.05;10.82;;;11.80;99.90;;;;;;5011899;28;20022;-43
2023/04/07 11:23:27;;;;;;;10.80;9.52;;;11.80;99.90;;;;;;5015444;28;20033;-45
2023/04/07 11:26:02;;;;;;;11.90;10.50;;;11.70;99.90;;;;;;5012602;28;20613;-44
2023/04/07 11:28:28;;;;;;;11.90;10.05;;;11.50;99.90;;;;;;5012445;28;20071;-46
2023/04/07 11:30:55;;;;;;;11.15;9.52;;;11.60;99.90;;;;;;5012390;28;20030;-41
2023/04/07 11:33:22;;;;;;;12.13;9.85;;;11.60;99.90;;;;;;5012697;28;20208;-43
2023/04/07 11:35:59;;;;;;;11.98;10.70;;;11.50;99.90;;;;;;5013359;28;20107;-43
2023/04/07 11:38:27;;;;;;;11.18;9.77;;;11.50;99.90;;;;;;5011575;28;20116;-49
2023/04/07 11:40:54;;;;;;;11.10;9.07;;;11.50;99.90;;;;;;5009046;28;20026;-45
2023/04/07 11:43:22;;;;;;;10.52;9.38;;;11.50;99.90;;;;;;5003272;28;20033;-43
2023/04/07 11:46:07;;;;;;;13.27;11.90;;;11.60;99.90;;;;;;5011039;28;20103;-44
2023/04/07 11:48:34;;;;;;;12.73;10.70;;;11.70;99.90;;;;;;4992733;28;20037;-44
2023/04/07 11:51:01;;;;;;;12.00;10.68;;;11.60;99.90;;;;;;5011806;28;20050;-46
2023/04/07 11:53:27;;;;;;;12.85;11.27;;;11.60;99.90;;;;;;5010805;28;20036;-51
2023/04/07 11:56:11;;;;;;;15.38;11.60;;;11.60;99.90;;;;;;5012074;28;20025;-44
2023/04/07 11:58:37;;;;;;;20.27;16.58;;;11.50;99.90;;;;;;5012116;28;20129;-46
2023/04/07 12:01:07;;;;;;;13.32;11.00;;;12.40;99.90;;;;;;5012283;28;20083;-46
2023/04/07 12:03:34;;;;;;;12.55;10.75;;;11.60;99.90;;;;;;5011459;28;20026;-44
2023/04/07 12:06:01;;;;;;;11.80;10.57;;;11.60;99.90;;;;;;5011944;28;20033;-46
2023/04/07 12:08:56;;;;;;;11.18;9.93;;;11.70;99.90;;;;;;5011817;28;20026;-45
2023/04/07 12:11:22;;;;;;;12.45;10.20;;;11.70;99.90;;;;;;4996392;28;20041;-46
2023/04/07 12:13:47;;;;;;;12.32;10.35;;;11.70;99.90;;;;;;5011865;28;20034;-45
2023/04/07 12:16:13;;;;;;;13.32;10.38;;;11.70;99.90;;;;;;5011902;28;20081;-45
2023/04/07 12:18:38;;;;;;;10.95;8.63;;;11.80;99.90;;;;;;5011095;28;20576;-46
2023/04/07 12:21:04;;;;;;;10.40;9.40;;;11.70;99.90;;;;;;5010623;28;20088;-43
2023/04/07 12:23:30;;;;;;;12.70;10.00;;;11.80;99.90;;;;;;5010114;28;20580;-42
2023/04/07 12:25:55;;;;;;;12.23;9.63;;;11.80;99.90;;;;;;5011147;28;20033;-43
2023/04/07 12:28:21;;;;;;;11.18;9.00;;;11.90;99.90;;;;;;5009083;28;20030;-43
2023/04/07 12:30:46;;;;;;;10.40;9.35;;;11.90;99.90;;;;;;5009348;28;20026;-38
2023/04/07 12:33:12;;;;;;;13.57;9.07;;;11.90;99.90;;;;;;5011183;28;20035;-41
2023/04/07 12:35:38;;;;;;;9.88;8.88;;;11.80;99.90;;;;;;5011455;28;20041;-43